Time;durP1;ratioP1;P1;durP2;ratioP2;P2;SDS_P1;SDS_P2;PMS_P1;PMS_P2;Temp;Humidity;BMP_temperature;BMP_pressure;BME280_temperature;BME280_humidity;BME280_pressure;Samples;Min_cycle;Max_cycle;Signal;HPM_P1;HPM_P2
2022/02/11 00:02:22;;;;;;;7.90;3.10;;;5.50;97.30;;;;;;5014790;28;20440;-80
2022/02/11 00:05:28;;;;;;;5.90;2.90;;;5.50;97.30;;;;;;5031480;28;20419;-79
2022/02/11 00:07:56;;;;;;;5.47;3.37;;;5.40;97.30;;;;;;5015649;28;20463;-80
2022/02/11 00:10:22;;;;;;;12.40;2.77;;;5.30;97.30;;;;;;5033714;28;20499;-80
2022/02/11 00:12:48;;;;;;;9.83;2.50;;;5.20;97.30;;;;;;5033822;28;20432;-80
2022/02/11 00:17:57;;;;;;;10.57;3.10;;;5.00;97.30;;;;;;5035795;28;20161;-79
2022/02/11 00:20:23;;;;;;;5.60;1.70;;;4.90;97.30;;;;;;5033251;28;20487;-79
2022/02/11 00:22:49;;;;;;;2.60;1.80;;;4.90;97.30;;;;;;5032421;28;20200;-80
2022/02/11 00:25:16;;;;;;;2.77;2.23;;;4.90;97.30;;;;;;5033643;28;20426;-81
2022/02/11 00:28:45;;;;;;;3.27;1.60;;;4.90;97.30;;;;;;5033807;28;20207;-80
2022/02/11 00:30:52;;;;;;;4.57;1.90;;;4.90;97.30;;;;;;5033628;28;20435;-80
2022/02/11 00:35:47;;;;;;;2.70;2.00;;;4.80;97.30;;;;;;5037894;28;20407;-80
2022/02/11 00:38:19;;;;;;;6.90;2.43;;;4.90;97.30;;;;;;5031151;28;20184;-80
2022/02/11 01:02:33;;;;;;;4.40;2.03;;;4.70;97.30;;;;;;5037437;28;21009;-81
2022/02/11 01:04:58;;;;;;;3.97;2.10;;;4.70;97.30;;;;;;5035673;28;20457;-81
2022/02/11 01:07:24;;;;;;;2.43;1.90;;;4.70;97.30;;;;;;5036545;28;20451;-81
2022/02/11 01:09:49;;;;;;;3.30;2.00;;;4.70;97.30;;;;;;5035609;28;20269;-81
2022/02/11 01:12:15;;;;;;;4.57;2.00;;;4.70;97.30;;;;;;5035005;28;20198;-80
2022/02/11 01:14:49;;;;;;;1.57;1.50;;;4.60;97.30;;;;;;5035518;28;20207;-80
2022/02/11 01:17:29;;;;;;;2.87;2.17;;;4.60;97.30;;;;;;5034455;28;20188;-81
2022/02/11 01:20:00;;;;;;;1.90;1.60;;;4.50;97.30;;;;;;5034302;28;21050;-81
2022/02/11 01:25:30;;;;;;;2.77;1.60;;;4.50;97.30;;;;;;5033455;28;20419;-80
2022/02/11 01:30:50;;;;;;;3.67;1.70;;;4.50;97.30;;;;;;5033439;28;20480;-81
2022/02/11 01:33:35;;;;;;;4.50;1.63;;;4.50;97.30;;;;;;5031551;28;20193;-80
2022/02/11 01:36:55;;;;;;;2.30;1.90;;;4.50;97.30;;;;;;5030636;28;20427;-80
2022/02/11 01:47:20;;;;;;;4.73;1.80;;;4.50;97.30;;;;;;5032964;28;20410;-81
2022/02/11 01:52:45;;;;;;;2.20;1.73;;;4.50;97.30;;;;;;5034260;28;20557;-81
2022/02/11 01:55:42;;;;;;;3.03;1.77;;;4.40;97.30;;;;;;5033959;28;20423;-81
2022/02/11 02:09:38;;;;;;;5.80;1.60;;;4.30;97.30;;;;;;5035603;28;20556;-82
2022/02/11 02:18:16;;;;;;;4.30;1.60;;;4.10;97.30;;;;;;5038829;28;20413;-81
2022/02/11 02:26:03;;;;;;;3.30;1.70;;;4.10;97.30;;;;;;5004187;28;20415;-81
2022/02/11 02:58:23;;;;;;;1.97;1.60;;;3.60;97.30;;;;;;5019696;28;20415;-82
2022/02/11 03:14:54;;;;;;;2.90;1.87;;;3.50;97.30;;;;;;5019457;28;20451;-82
2022/02/11 03:55:46;;;;;;;5.30;2.53;;;3.00;97.30;;;;;;5036883;28;20498;-82
2022/02/11 03:58:41;;;;;;;5.43;2.40;;;2.90;97.30;;;;;;5037224;28;20427;-81
2022/02/11 04:26:07;;;;;;;7.57;3.50;;;2.20;97.30;;;;;;5014066;28;20411;-81
2022/02/11 04:52:44;;;;;;;6.23;3.30;;;2.20;97.30;;;;;;5037915;28;20459;-81
2022/02/11 04:53:56;;;;;;;3.90;2.50;;;1.50;97.30;;;;;;5017431;28;20431;-82
2022/02/11 04:56:03;;;;;;;5.27;2.97;;;1.50;97.30;;;;;;5014790;28;20898;-81
2022/02/11 05:01:14;;;;;;;9.30;4.00;;;1.40;97.30;;;;;;5016046;28;20407;-81
2022/02/11 05:03:40;;;;;;;12.00;3.10;;;1.50;97.30;;;;;;5013192;28;20420;-81
2022/02/11 05:06:06;;;;;;;7.03;3.30;;;1.40;97.30;;;;;;5013880;28;20420;-81
2022/02/11 05:08:31;;;;;;;6.73;3.57;;;1.50;97.30;;;;;;5013165;28;20295;-82
2022/02/11 05:10:57;;;;;;;6.70;3.60;;;1.50;97.30;;;;;;5013635;28;20263;-82
2022/02/11 05:13:24;;;;;;;5.40;3.00;;;1.40;97.30;;;;;;5013666;28;20203;-81
2022/02/11 05:15:50;;;;;;;4.87;3.00;;;1.40;97.30;;;;;;5013479;28;20794;-81
2022/02/11 05:18:17;;;;;;;5.47;3.07;;;1.50;97.30;;;;;;5013617;28;20519;-81
2022/02/11 05:20:43;;;;;;;6.37;3.23;;;1.40;97.30;;;;;;5013294;28;20503;-81
2022/02/11 05:23:11;;;;;;;4.50;2.47;;;1.40;97.30;;;;;;5013856;28;20440;-81
2022/02/11 05:25:38;;;;;;;4.03;2.30;;;1.30;97.30;;;;;;5013330;28;20830;-81
2022/02/11 05:28:06;;;;;;;3.83;2.10;;;1.30;97.30;;;;;;5014113;28;20482;-81
2022/02/11 05:30:32;;;;;;;6.10;2.60;;;1.30;97.30;;;;;;5012514;28;20420;-81
2022/02/11 05:33:00;;;;;;;4.07;2.60;;;1.30;97.30;;;;;;5026926;28;20466;-82
2022/02/11 05:35:25;;;;;;;3.83;2.40;;;1.30;97.30;;;;;;5031683;28;20533;-81
2022/02/11 05:37:51;;;;;;;6.37;2.97;;;1.30;97.30;;;;;;5033065;28;20933;-81
2022/02/11 05:40:17;;;;;;;3.60;2.40;;;1.30;97.30;;;;;;5031386;28;20185;-81
2022/02/11 05:42:42;;;;;;;5.53;2.77;;;1.30;97.30;;;;;;5030979;28;20658;-81
2022/02/11 05:45:09;;;;;;;4.53;2.40;;;1.30;97.30;;;;;;5031172;28;20714;-81
2022/02/11 05:47:35;;;;;;;4.77;2.90;;;1.30;97.30;;;;;;5031549;28;20211;-81
2022/02/11 05:50:03;;;;;;;5.53;2.97;;;1.20;97.30;;;;;;5031329;28;20504;-81
2022/02/11 05:52:33;;;;;;;9.40;3.03;;;1.20;97.30;;;;;;5031311;28;20350;-81
2022/02/11 05:54:58;;;;;;;9.73;3.13;;;1.30;97.30;;;;;;5032988;28;20411;-80
2022/02/11 05:57:24;;;;;;;4.93;2.80;;;1.30;97.30;;;;;;5031308;28;20419;-82
2022/02/11 05:59:50;;;;;;;7.70;3.10;;;1.20;97.30;;;;;;5031581;28;20584;-81
2022/02/11 06:02:16;;;;;;;6.23;2.97;;;1.20;97.30;;;;;;5032573;28;20554;-81
2022/02/11 06:04:42;;;;;;;5.43;2.97;;;1.20;97.30;;;;;;5031047;28;20187;-81
2022/02/11 06:07:07;;;;;;;5.10;2.70;;;1.20;97.30;;;;;;5030863;28;20791;-80
2022/02/11 06:09:33;;;;;;;5.00;3.20;;;1.20;97.30;;;;;;5029999;28;20311;-80
2022/02/11 06:11:58;;;;;;;6.47;4.03;;;1.20;97.30;;;;;;5030264;28;20219;-80
2022/02/11 06:14:24;;;;;;;8.80;3.00;;;1.20;97.30;;;;;;5030092;28;20176;-81
2022/02/11 06:16:50;;;;;;;5.67;3.03;;;1.20;97.30;;;;;;5030117;28;20267;-81
2022/02/11 06:19:16;;;;;;;9.90;4.03;;;1.20;97.30;;;;;;5035608;28;20169;-81
2022/02/11 06:21:41;;;;;;;7.60;2.90;;;1.30;97.30;;;;;;5030122;28;20200;-80
2022/02/11 06:24:07;;;;;;;8.70;3.80;;;1.30;97.30;;;;;;5030065;28;20423;-80
2022/02/11 06:26:33;;;;;;;8.27;3.37;;;1.30;97.30;;;;;;5029681;28;20184;-81
2022/02/11 06:28:58;;;;;;;8.93;3.43;;;1.30;97.30;;;;;;5030871;28;20463;-81
2022/02/11 06:31:25;;;;;;;6.67;3.23;;;1.40;97.30;;;;;;5029857;28;20180;-80
2022/02/11 06:33:51;;;;;;;10.93;3.77;;;1.40;97.30;;;;;;5030154;28;20180;-80
2022/02/11 06:36:17;;;;;;;9.33;3.97;;;1.40;97.30;;;;;;5029696;28;20415;-80
2022/02/11 06:38:42;;;;;;;6.83;3.67;;;1.40;97.30;;;;;;5029591;28;20477;-81
2022/02/11 06:41:08;;;;;;;7.00;3.33;;;1.50;97.30;;;;;;5029389;28;20206;-81
2022/02/11 06:43:34;;;;;;;5.63;3.00;;;1.50;97.30;;;;;;5029576;28;20205;-81
2022/02/11 06:46:01;;;;;;;13.80;3.53;;;1.50;97.30;;;;;;5031407;28;20185;-80
2022/02/11 06:48:27;;;;;;;22.23;4.90;;;1.50;97.30;;;;;;5029351;28;20223;-81
2022/02/11 06:50:54;;;;;;;10.00;4.57;;;1.60;97.30;;;;;;5029057;28;20418;-81
2022/02/11 06:53:19;;;;;;;9.37;4.07;;;1.50;97.30;;;;;;5030060;28;21022;-81
2022/02/11 06:55:45;;;;;;;9.93;5.00;;;1.60;97.30;;;;;;5033404;28;20415;-81
2022/02/11 06:58:11;;;;;;;8.77;3.90;;;1.60;97.30;;;;;;5035736;28;20173;-82
2022/02/11 07:00:45;;;;;;;23.07;5.00;;;1.60;97.30;;;;;;5038762;28;20477;-80
2022/02/11 07:03:12;;;;;;;8.97;4.20;;;1.60;97.30;;;;;;5036878;28;20894;-81
2022/02/11 07:05:38;;;;;;;9.30;5.30;;;1.60;97.30;;;;;;5037275;28;20548;-81
2022/02/11 07:08:05;;;;;;;9.70;4.80;;;1.60;97.30;;;;;;5034883;28;20980;-80
2022/02/11 07:10:30;;;;;;;15.30;5.83;;;1.60;97.30;;;;;;5034632;28;20474;-81
2022/02/11 07:12:56;;;;;;;12.60;5.50;;;1.60;97.30;;;;;;5035808;28;20431;-81
2022/02/11 07:15:22;;;;;;;13.00;4.80;;;1.60;97.30;;;;;;5035494;28;20488;-81
2022/02/11 07:17:48;;;;;;;11.20;3.77;;;1.70;97.30;;;;;;5034591;28;20411;-81
2022/02/11 07:20:14;;;;;;;6.77;3.47;;;1.70;97.30;;;;;;5034899;28;20608;-81
2022/02/11 07:22:39;;;;;;;12.13;4.40;;;1.70;97.30;;;;;;5033805;28;20228;-82
2022/02/11 07:25:08;;;;;;;21.00;6.10;;;1.70;97.30;;;;;;5034226;28;20425;-80
2022/02/11 07:27:34;;;;;;;11.50;4.77;;;1.70;97.30;;;;;;5033539;28;20208;-82
2022/02/11 07:29:59;;;;;;;10.07;4.27;;;1.70;97.30;;;;;;5033591;28;20930;-82
2022/02/11 07:32:26;;;;;;;9.93;4.50;;;1.70;97.30;;;;;;5034420;28;20581;-81
2022/02/11 07:34:52;;;;;;;14.83;4.20;;;1.80;97.30;;;;;;5033051;28;20224;-82
2022/02/11 07:37:18;;;;;;;7.07;4.27;;;1.80;97.30;;;;;;5034117;28;20480;-81
2022/02/11 07:39:45;;;;;;;11.80;4.30;;;1.80;97.30;;;;;;5034041;28;20438;-82
2022/02/11 07:42:10;;;;;;;10.57;5.10;;;1.80;97.30;;;;;;5033886;28;20586;-82
2022/02/11 07:44:36;;;;;;;11.80;5.00;;;1.80;97.30;;;;;;5035657;28;20913;-82
2022/02/11 07:47:02;;;;;;;12.10;4.97;;;1.90;97.30;;;;;;5033074;28;20271;-81
2022/02/11 07:49:30;;;;;;;10.17;4.83;;;1.90;97.30;;;;;;5034679;28;20428;-82
2022/02/11 07:51:56;;;;;;;9.83;3.77;;;1.90;97.30;;;;;;5033490;28;20678;-82
2022/02/11 07:54:22;;;;;;;8.10;3.97;;;1.80;97.30;;;;;;5033919;28;20434;-82
2022/02/11 07:56:47;;;;;;;6.47;3.97;;;1.90;97.30;;;;;;5033578;28;20263;-81
2022/02/11 07:59:13;;;;;;;13.57;4.27;;;1.80;97.30;;;;;;5034235;28;20176;-82
2022/02/11 08:01:39;;;;;;;7.70;3.73;;;1.90;97.30;;;;;;5032982;28;20553;-81
2022/02/11 08:04:05;;;;;;;4.40;2.83;;;2.00;97.30;;;;;;5039381;28;20227;-82
2022/02/11 08:06:30;;;;;;;5.00;3.30;;;2.10;97.30;;;;;;5032517;28;20560;-82
2022/02/11 08:08:56;;;;;;;7.77;3.60;;;2.20;97.30;;;;;;5034178;28;20482;-82
2022/02/11 08:11:21;;;;;;;7.30;3.20;;;2.30;97.30;;;;;;5034252;28;20177;-81
2022/02/11 08:13:47;;;;;;;7.10;3.50;;;2.40;97.30;;;;;;5035833;28;20203;-82
2022/02/11 08:16:12;;;;;;;9.70;3.30;;;2.50;97.30;;;;;;5033178;28;20177;-82
2022/02/11 08:18:38;;;;;;;8.47;3.67;;;2.60;97.30;;;;;;5033665;28;20181;-81
2022/02/11 08:21:04;;;;;;;8.80;4.13;;;2.70;97.30;;;;;;5033447;28;20187;-81
2022/02/11 08:23:33;;;;;;;7.80;3.77;;;2.70;97.30;;;;;;5032718;28;20193;-81
2022/02/11 08:25:59;;;;;;;7.60;3.03;;;2.70;97.30;;;;;;5032581;28;20177;-82
2022/02/11 08:28:24;;;;;;;7.63;3.47;;;2.80;97.30;;;;;;5033006;28;20544;-81
2022/02/11 08:30:51;;;;;;;8.80;4.30;;;2.80;97.30;;;;;;5032686;28;20252;-82
2022/02/11 08:33:21;;;;;;;5.90;3.17;;;2.90;97.30;;;;;;5032690;28;20469;-81
2022/02/11 08:35:56;;;;;;;6.93;3.93;;;3.00;97.30;;;;;;5032805;28;20177;-82
2022/02/11 08:38:24;;;;;;;11.40;3.50;;;3.00;97.30;;;;;;5032973;28;20434;-82
2022/02/11 08:40:50;;;;;;;9.77;3.90;;;3.10;97.30;;;;;;5034015;28;20798;-82
2022/02/11 08:43:17;;;;;;;8.10;3.60;;;3.20;97.30;;;;;;5033158;28;20438;-82
2022/02/11 08:45:43;;;;;;;8.37;3.60;;;3.30;97.30;;;;;;5032803;28;20208;-82
2022/02/11 08:48:10;;;;;;;9.40;4.60;;;3.40;97.30;;;;;;5035318;28;20474;-82
2022/02/11 08:50:37;;;;;;;4.93;3.57;;;3.50;97.30;;;;;;5034138;28;20416;-81
2022/02/11 08:53:04;;;;;;;11.13;3.97;;;3.60;97.30;;;;;;5033638;28;20439;-82
2022/02/11 08:55:30;;;;;;;8.03;3.90;;;3.70;97.30;;;;;;5034891;28;20423;-82
2022/02/11 08:57:59;;;;;;;9.20;3.77;;;3.80;97.30;;;;;;5034562;28;20419;-81
2022/02/11 09:00:26;;;;;;;6.57;3.13;;;3.90;97.30;;;;;;5037730;28;20443;-80
2022/02/11 09:02:52;;;;;;;6.30;3.73;;;4.00;97.30;;;;;;5032428;28;20509;-82
2022/02/11 09:05:21;;;;;;;6.70;3.40;;;4.10;97.30;;;;;;5034773;28;20419;-82
2022/02/11 09:07:53;;;;;;;7.43;3.17;;;4.20;97.30;;;;;;5032937;28;20816;-82
2022/02/11 09:10:19;;;;;;;6.33;2.93;;;4.30;97.30;;;;;;5033208;28;20508;-82
2022/02/11 09:12:44;;;;;;;8.30;3.60;;;4.10;97.30;;;;;;5033306;28;20537;-81
2022/02/11 09:15:10;;;;;;;6.43;3.77;;;3.90;97.30;;;;;;5033943;28;20458;-82
2022/02/11 09:17:36;;;;;;;5.13;3.00;;;3.90;97.30;;;;;;5034064;28;20169;-82
2022/02/11 09:20:01;;;;;;;5.57;2.90;;;3.80;97.30;;;;;;5033615;28;20572;-82
2022/02/11 09:22:29;;;;;;;7.33;3.70;;;3.70;97.30;;;;;;5033209;28;20211;-81
2022/02/11 09:24:54;;;;;;;7.83;3.63;;;3.70;97.30;;;;;;5033192;28;20184;-82
2022/02/11 09:27:21;;;;;;;5.17;3.03;;;3.70;97.30;;;;;;5033293;28;20939;-82
2022/02/11 09:29:47;;;;;;;5.87;3.10;;;3.70;97.30;;;;;;5035296;28;20259;-82
2022/02/11 09:32:13;;;;;;;6.00;3.43;;;3.60;97.30;;;;;;5033336;28;20493;-82
2022/02/11 09:34:38;;;;;;;7.30;3.50;;;3.60;97.30;;;;;;5033977;28;20257;-81
2022/02/11 09:37:04;;;;;;;6.00;3.27;;;3.50;97.30;;;;;;5033739;28;20419;-79
2022/02/11 09:39:30;;;;;;;6.13;3.33;;;3.60;97.30;;;;;;5032305;28;20738;-81
2022/02/11 09:41:57;;;;;;;6.30;3.47;;;3.60;97.30;;;;;;5033685;28;20535;-81
2022/02/11 09:44:24;;;;;;;6.30;3.60;;;3.60;97.30;;;;;;5032209;28;20199;-80
2022/02/11 09:46:51;;;;;;;8.97;3.40;;;3.60;97.30;;;;;;5029676;28;20752;-80
2022/02/11 09:49:17;;;;;;;4.77;3.07;;;3.60;97.30;;;;;;5029590;28;20454;-80
2022/02/11 09:51:44;;;;;;;8.27;4.00;;;3.60;97.30;;;;;;5029423;28;20492;-80
2022/02/11 09:54:17;;;;;;;8.97;4.00;;;3.60;97.30;;;;;;5028855;28;20423;-80
2022/02/11 09:56:43;;;;;;;10.70;3.43;;;3.70;97.30;;;;;;5029644;28;20442;-80
2022/02/11 09:59:09;;;;;;;6.07;3.37;;;3.70;97.30;;;;;;5029271;28;20469;-80
2022/02/11 10:01:37;;;;;;;4.33;2.90;;;3.80;97.30;;;;;;5030623;28;20477;-80
2022/02/11 10:04:15;;;;;;;4.90;2.80;;;3.90;97.30;;;;;;5029280;28;20180;-79
2022/02/11 10:06:41;;;;;;;9.63;3.13;;;3.90;97.30;;;;;;5030500;28;20790;-80
2022/02/11 10:09:07;;;;;;;7.77;3.67;;;4.00;97.30;;;;;;5029117;28;20892;-80
2022/02/11 10:11:34;;;;;;;5.63;2.87;;;4.10;97.30;;;;;;5031782;28;20432;-81
2022/02/11 10:14:21;;;;;;;6.13;3.63;;;4.10;97.30;;;;;;5033244;28;20494;-81
2022/02/11 10:17:02;;;;;;;10.73;2.77;;;4.20;97.30;;;;;;5030723;28;20519;-80
2022/02/11 10:19:42;;;;;;;8.67;3.17;;;4.30;97.30;;;;;;5030845;28;20423;-81
2022/02/11 10:22:17;;;;;;;8.63;3.07;;;4.30;97.30;;;;;;5032873;28;20426;-81
2022/02/11 10:24:44;;;;;;;4.97;3.50;;;4.40;97.30;;;;;;5032581;28;20423;-80
2022/02/11 10:27:18;;;;;;;4.33;3.13;;;4.40;97.30;;;;;;5032126;28;20415;-80
2022/02/11 10:29:44;;;;;;;4.57;3.33;;;4.50;97.30;;;;;;5030929;28;20442;-81
2022/02/11 10:32:10;;;;;;;6.97;3.53;;;4.50;97.30;;;;;;5034974;28;20928;-80
2022/02/11 10:34:39;;;;;;;7.30;3.53;;;4.60;97.30;;;;;;5034451;28;20414;-81
2022/02/11 10:37:09;;;;;;;7.20;3.37;;;4.60;97.30;;;;;;5034379;28;20177;-80
2022/02/11 10:39:37;;;;;;;7.53;3.20;;;4.70;97.30;;;;;;5035761;28;20422;-80
2022/02/11 10:42:10;;;;;;;7.27;4.13;;;4.80;97.30;;;;;;5035358;28;20442;-80
2022/02/11 10:44:39;;;;;;;5.50;3.40;;;4.80;97.30;;;;;;5035038;28;20415;-81
2022/02/11 10:47:14;;;;;;;7.03;3.50;;;4.80;97.30;;;;;;5034474;28;20430;-79
2022/02/11 10:49:41;;;;;;;5.63;3.67;;;4.90;97.30;;;;;;5034280;28;20488;-80
2022/02/11 10:52:24;;;;;;;10.90;3.67;;;4.90;97.30;;;;;;5034132;28;20488;-80
2022/02/11 10:54:52;;;;;;;6.80;3.80;;;4.90;97.30;;;;;;5034206;28;20443;-79
2022/02/11 10:57:23;;;;;;;8.70;3.33;;;5.00;97.30;;;;;;5033915;28;20415;-81
2022/02/11 10:59:50;;;;;;;8.93;4.10;;;5.00;97.30;;;;;;5033368;28;20418;-80
2022/02/11 11:02:23;;;;;;;6.53;3.10;;;5.00;97.30;;;;;;5034042;28;20815;-80
2022/02/11 11:04:51;;;;;;;8.70;4.30;;;5.00;97.30;;;;;;5035859;28;20463;-80
2022/02/11 11:07:28;;;;;;;6.30;3.10;;;5.00;97.30;;;;;;5034282;28;20407;-80
2022/02/11 11:09:55;;;;;;;6.10;2.90;;;5.00;97.30;;;;;;5033760;28;20574;-81
2022/02/11 11:12:23;;;;;;;5.07;3.43;;;5.00;97.30;;;;;;5034996;28;20469;-81
2022/02/11 11:14:50;;;;;;;9.93;2.90;;;5.00;97.30;;;;;;5035276;28;20466;-81
2022/02/11 11:17:18;;;;;;;13.27;3.60;;;5.00;97.30;;;;;;5036806;28;20439;-80
2022/02/11 11:19:44;;;;;;;5.70;3.47;;;5.00;97.30;;;;;;5037168;28;20470;-80
2022/02/11 11:22:11;;;;;;;8.40;3.80;;;5.00;97.30;;;;;;5033364;28;20460;-81
2022/02/11 11:24:43;;;;;;;7.53;2.97;;;5.00;97.30;;;;;;5033222;28;20474;-81
2022/02/11 11:27:09;;;;;;;10.40;3.30;;;5.00;97.30;;;;;;5033929;28;20985;-80
2022/02/11 11:29:35;;;;;;;9.50;2.90;;;5.10;97.30;;;;;;5034230;28;20451;-81
2022/02/11 11:32:03;;;;;;;6.90;3.67;;;5.10;97.30;;;;;;5033980;28;20291;-81
2022/02/11 11:34:31;;;;;;;6.57;3.27;;;5.10;97.30;;;;;;5033579;28;20434;-81
2022/02/11 11:37:05;;;;;;;4.63;3.30;;;5.10;97.30;;;;;;5033113;28;20501;-80
2022/02/11 11:39:31;;;;;;;5.37;3.70;;;5.10;97.30;;;;;;5033748;28;20423;-81
2022/02/11 11:42:17;;;;;;;8.97;3.60;;;5.10;97.30;;;;;;5032659;28;20526;-80
2022/02/11 11:44:56;;;;;;;4.00;3.13;;;5.10;97.30;;;;;;5032175;28;21127;-80
2022/02/11 11:47:27;;;;;;;6.27;3.07;;;5.10;97.30;;;;;;5034098;28;20443;-80
2022/02/11 11:49:54;;;;;;;7.70;3.30;;;5.20;97.30;;;;;;5032388;28;20931;-80
2022/02/11 11:52:20;;;;;;;6.47;3.00;;;5.20;97.30;;;;;;5032530;28;20428;-80
2022/02/11 11:54:47;;;;;;;6.57;3.50;;;5.20;97.30;;;;;;5032609;28;20423;-80
2022/02/11 11:57:17;;;;;;;6.53;3.37;;;5.20;97.30;;;;;;5032818;28;20420;-80
2022/02/11 11:59:57;;;;;;;6.07;3.30;;;5.20;97.30;;;;;;5032453;28;20469;-80
2022/02/11 12:02:34;;;;;;;6.97;3.43;;;5.20;97.30;;;;;;5032468;28;21030;-80
2022/02/11 12:05:02;;;;;;;5.40;3.77;;;5.20;97.30;;;;;;5032704;28;20434;-80
2022/02/11 12:07:37;;;;;;;6.47;3.20;;;5.30;97.30;;;;;;5033159;28;20455;-80
2022/02/11 12:10:09;;;;;;;10.27;3.03;;;5.40;97.30;;;;;;5032812;28;20554;-80
2022/02/11 12:12:36;;;;;;;5.70;2.97;;;5.50;97.30;;;;;;5033805;28;20796;-79
2022/02/11 12:15:04;;;;;;;8.10;3.70;;;5.60;97.30;;;;;;5033415;28;20881;-79
2022/02/11 12:17:31;;;;;;;12.87;4.80;;;5.60;97.30;;;;;;5031241;28;20458;-80
2022/02/11 12:19:57;;;;;;;4.50;3.17;;;5.60;97.30;;;;;;5032219;28;20507;-79
2022/02/11 12:22:28;;;;;;;5.47;3.60;;;5.60;97.30;;;;;;5030432;28;20439;-79
2022/02/11 12:27:42;;;;;;;6.90;3.43;;;5.60;97.30;;;;;;5032691;28;21034;-79
2022/02/11 12:30:17;;;;;;;8.07;3.37;;;5.50;97.30;;;;;;5030788;28;20419;-79
2022/02/11 12:32:53;;;;;;;4.93;3.30;;;5.40;97.30;;;;;;5030866;28;20555;-79
2022/02/11 12:35:24;;;;;;;4.93;3.17;;;5.40;97.30;;;;;;5030168;28;20419;-80
2022/02/11 12:37:51;;;;;;;5.70;2.70;;;5.30;97.30;;;;;;5029944;28;20803;-79
2022/02/11 12:40:24;;;;;;;7.13;4.00;;;5.30;97.30;;;;;;5031444;28;20942;-79
2022/02/11 12:42:53;;;;;;;5.20;3.30;;;5.30;97.30;;;;;;5030544;28;20839;-80
2022/02/11 12:45:26;;;;;;;9.60;3.50;;;5.40;97.30;;;;;;5030819;28;20470;-79
2022/02/11 12:47:53;;;;;;;5.43;2.50;;;5.40;97.30;;;;;;5030817;28;20540;-79
2022/02/11 12:50:29;;;;;;;3.33;2.73;;;5.50;97.30;;;;;;5029617;28;20422;-80
2022/02/11 12:52:57;;;;;;;3.47;2.90;;;5.50;97.30;;;;;;5028905;28;20541;-79
2022/02/11 12:55:23;;;;;;;4.37;2.80;;;5.50;97.30;;;;;;5030252;28;20782;-80
2022/02/11 12:57:51;;;;;;;7.00;2.70;;;5.50;97.30;;;;;;5030601;28;20577;-79
2022/02/11 13:00:24;;;;;;;7.67;2.90;;;5.40;97.30;;;;;;5031169;28;20234;-79
2022/02/11 13:02:51;;;;;;;5.30;2.37;;;5.40;97.30;;;;;;5029913;28;20441;-80
2022/02/11 13:05:21;;;;;;;4.30;2.40;;;5.30;97.30;;;;;;5031096;28;20414;-79
2022/02/11 13:07:51;;;;;;;7.07;2.77;;;5.30;97.30;;;;;;5029352;28;20545;-79
2022/02/11 13:10:28;;;;;;;3.03;2.10;;;5.20;97.30;;;;;;5030866;28;20470;-80
2022/02/11 13:12:56;;;;;;;6.83;2.27;;;4.90;97.30;;;;;;5029749;28;20501;-79
2022/02/11 13:15:28;;;;;;;7.03;3.20;;;4.80;97.30;;;;;;5029224;28;20424;-79
2022/02/11 13:17:55;;;;;;;3.90;2.47;;;4.70;97.30;;;;;;5029450;28;20478;-80
2022/02/11 13:20:22;;;;;;;5.17;2.60;;;4.70;97.30;;;;;;5028951;28;20917;-79
2022/02/11 13:22:50;;;;;;;5.10;2.57;;;4.60;97.30;;;;;;5029139;28;20454;-79
2022/02/11 13:25:18;;;;;;;9.10;3.03;;;4.60;97.30;;;;;;5028834;28;20423;-80
2022/02/11 13:27:52;;;;;;;9.90;2.87;;;4.60;97.30;;;;;;5028949;28;20830;-79
2022/02/11 13:30:23;;;;;;;2.73;2.20;;;4.60;97.30;;;;;;5028998;28;20407;-80
2022/02/11 13:32:50;;;;;;;3.67;2.50;;;4.60;97.30;;;;;;5028835;28;20523;-80
2022/02/11 13:35:15;;;;;;;6.93;3.83;;;4.50;97.30;;;;;;5028446;28;20442;-79
2022/02/11 13:37:45;;;;;;;5.70;2.30;;;4.50;97.30;;;;;;5028280;28;20441;-79
2022/02/11 13:40:12;;;;;;;13.77;3.17;;;4.50;97.30;;;;;;5026927;28;20188;-80
2022/02/11 13:42:38;;;;;;;3.70;2.33;;;4.40;97.30;;;;;;5021602;28;20474;-79
2022/02/11 13:45:06;;;;;;;5.10;2.07;;;4.40;97.30;;;;;;5019823;28;20443;-80
2022/02/11 13:47:32;;;;;;;4.30;2.23;;;4.40;97.30;;;;;;5025161;28;20211;-80
2022/02/11 13:50:05;;;;;;;8.20;2.20;;;4.40;97.30;;;;;;5025374;28;20427;-80
2022/02/11 13:55:16;;;;;;;2.63;1.87;;;4.40;97.30;;;;;;5029621;28;20429;-79
2022/02/11 13:57:43;;;;;;;4.20;2.00;;;4.50;97.30;;;;;;5027248;28;20423;-79
2022/02/11 14:00:37;;;;;;;8.33;2.20;;;4.50;97.30;;;;;;5026769;28;20420;-80
2022/02/11 14:03:04;;;;;;;6.47;1.70;;;4.50;97.30;;;;;;5028146;28;20443;-80
2022/02/11 14:05:41;;;;;;;4.37;1.93;;;4.50;97.30;;;;;;5027374;28;20925;-79
2022/02/11 14:08:09;;;;;;;3.20;1.50;;;4.50;97.30;;;;;;5028666;28;20458;-79
2022/02/11 14:10:35;;;;;;;3.00;1.60;;;4.50;97.30;;;;;;5029138;28;20960;-80
2022/02/11 14:13:08;;;;;;;5.23;1.73;;;4.50;97.30;;;;;;5029557;28;20585;-79
2022/02/11 14:15:34;;;;;;;3.80;1.30;;;4.50;97.30;;;;;;5032707;28;20420;-79
2022/02/11 14:18:02;;;;;;;2.40;1.67;;;4.50;97.30;;;;;;5031142;28;20435;-79
2022/02/11 14:20:28;;;;;;;2.50;1.33;;;4.50;97.30;;;;;;5031385;28;20420;-79
2022/02/11 14:22:53;;;;;;;5.93;1.60;;;4.50;97.30;;;;;;5030464;28;20933;-79
2022/02/11 14:25:19;;;;;;;1.63;1.60;;;4.50;97.30;;;;;;5030533;28;20260;-79
2022/02/11 14:27:44;;;;;;;4.30;1.57;;;4.50;97.30;;;;;;5031016;28;20200;-79
2022/02/11 14:30:10;;;;;;;5.40;1.70;;;4.50;97.30;;;;;;5030656;28;20646;-79
2022/02/11 14:32:36;;;;;;;1.47;1.40;;;4.50;97.30;;;;;;5030300;28;20258;-79
2022/02/11 14:35:01;;;;;;;1.73;1.30;;;4.50;97.30;;;;;;5030662;28;20672;-79
2022/02/11 14:37:27;;;;;;;5.47;1.47;;;4.50;97.30;;;;;;5031360;28;20187;-80
2022/02/11 14:39:52;;;;;;;7.77;1.47;;;4.50;97.30;;;;;;5030924;28;20677;-80
2022/02/11 14:42:18;;;;;;;3.27;1.43;;;4.50;97.30;;;;;;5031178;28;20748;-80
2022/02/11 14:44:44;;;;;;;1.90;1.27;;;4.50;97.30;;;;;;5031466;28;20169;-80
2022/02/11 14:47:09;;;;;;;2.70;1.60;;;4.50;97.30;;;;;;5031239;28;20173;-80
2022/02/11 14:49:36;;;;;;;1.47;1.43;;;4.50;97.30;;;;;;5032501;28;20204;-80
2022/02/11 14:52:07;;;;;;;5.07;1.37;;;4.50;97.30;;;;;;5031163;28;20569;-80
2022/02/11 14:54:35;;;;;;;2.43;1.53;;;4.60;97.30;;;;;;5031712;28;20427;-80
2022/02/11 14:57:01;;;;;;;5.03;1.60;;;4.60;97.30;;;;;;5032612;28;20425;-80
2022/02/11 14:59:27;;;;;;;4.20;1.67;;;4.60;97.30;;;;;;5032619;28;20431;-80
2022/02/11 15:01:54;;;;;;;3.63;1.43;;;4.60;97.30;;;;;;5033585;28;20508;-79
2022/02/11 15:04:20;;;;;;;1.97;1.67;;;4.60;97.30;;;;;;5027767;28;20422;-80
2022/02/11 15:06:47;;;;;;;7.40;2.30;;;4.70;97.30;;;;;;5029500;28;20494;-80
2022/02/11 15:09:13;;;;;;;3.40;1.40;;;4.70;97.30;;;;;;5027706;28;20477;-79
2022/02/11 15:11:39;;;;;;;2.23;1.50;;;4.70;97.30;;;;;;5029571;28;20467;-79
2022/02/11 15:14:04;;;;;;;2.33;2.13;;;4.70;97.30;;;;;;5029674;28;20415;-79
2022/02/11 15:16:30;;;;;;;3.00;1.33;;;4.80;97.30;;;;;;5030479;28;20423;-79
2022/02/11 15:18:56;;;;;;;4.80;1.30;;;4.80;97.30;;;;;;5046697;28;20182;-79
2022/02/11 15:21:23;;;;;;;3.70;1.50;;;4.80;97.30;;;;;;5040423;28;20180;-80
2022/02/11 15:23:49;;;;;;;5.97;1.60;;;4.80;97.30;;;;;;5034964;28;20537;-80
2022/02/11 15:26:16;;;;;;;2.30;1.30;;;4.80;97.30;;;;;;5034446;28;20510;-80
2022/02/11 15:28:43;;;;;;;8.13;1.90;;;4.80;97.30;;;;;;5033774;28;20204;-79
2022/02/11 15:31:11;;;;;;;7.40;1.70;;;4.80;97.30;;;;;;5033847;28;20412;-80
2022/02/11 15:33:38;;;;;;;2.47;1.40;;;4.80;97.30;;;;;;5033780;28;20939;-80
2022/02/11 15:36:04;;;;;;;3.10;1.30;;;4.80;97.30;;;;;;5033018;28;20493;-79
2022/02/11 15:38:30;;;;;;;2.30;1.10;;;4.70;97.30;;;;;;5017958;28;20417;-80
2022/02/11 15:40:56;;;;;;;2.40;1.60;;;4.70;97.30;;;;;;5035049;28;20523;-79
2022/02/11 15:43:22;;;;;;;2.60;1.40;;;4.60;97.30;;;;;;5033548;28;20196;-79
2022/02/11 15:45:48;;;;;;;1.30;1.20;;;4.50;97.30;;;;;;5034460;28;20185;-79
2022/02/11 15:48:14;;;;;;;1.80;1.53;;;4.50;97.30;;;;;;5033284;28;20574;-79
2022/02/11 15:50:41;;;;;;;1.30;1.30;;;4.50;97.30;;;;;;5033053;28;20431;-79
2022/02/11 15:53:14;;;;;;;2.30;1.03;;;4.50;97.30;;;;;;5033879;28;20435;-79
2022/02/11 15:55:41;;;;;;;2.87;1.27;;;4.50;97.30;;;;;;5033612;28;20481;-79
2022/02/11 15:58:07;;;;;;;2.77;1.70;;;4.50;97.30;;;;;;5033508;28;20419;-79
2022/02/11 16:00:34;;;;;;;1.50;1.30;;;4.50;97.30;;;;;;5035158;28;20427;-80
2022/02/11 16:03:03;;;;;;;3.00;1.40;;;4.50;97.30;;;;;;5033585;28;20427;-80
2022/02/11 16:05:29;;;;;;;3.53;1.80;;;4.50;97.30;;;;;;5035524;28;20407;-80
2022/02/11 16:07:55;;;;;;;4.20;1.33;;;4.50;97.30;;;;;;5033575;28;20451;-80
2022/02/11 16:10:22;;;;;;;1.20;1.10;;;4.50;97.30;;;;;;5032330;28;20228;-79
2022/02/11 16:12:48;;;;;;;3.70;1.43;;;4.50;97.30;;;;;;5034026;28;20200;-79
2022/02/11 16:15:15;;;;;;;3.17;1.50;;;4.50;97.30;;;;;;5034135;28;20419;-79
2022/02/11 16:17:59;;;;;;;11.57;3.27;;;4.40;97.30;;;;;;5033438;28;20435;-79
2022/02/11 16:20:36;;;;;;;11.27;4.63;;;4.40;97.30;;;;;;5033791;28;20458;-79
2022/02/11 16:23:05;;;;;;;9.03;5.20;;;4.50;97.30;;;;;;5033445;28;20443;-79
2022/02/11 16:25:31;;;;;;;5.27;3.43;;;4.50;97.30;;;;;;5033115;28;20514;-79
2022/02/11 16:27:57;;;;;;;25.67;12.83;;;4.50;97.30;;;;;;5032269;28;20549;-80